sensor_id;sensor_type;location;lat;lon;timestamp;P1;durP1;ratioP1;P2;durP2;ratioP2
29120;SDS011;16191;49.548;8.658;2022-07-10T00:01:48;4.57;;;3.22;;
29120;SDS011;16191;49.548;8.658;2022-07-10T00:04:15;5.68;;;2.90;;
29120;SDS011;16191;49.548;8.658;2022-07-10T00:06:41;5.80;;;3.00;;
29120;SDS011;16191;49.548;8.658;2022-07-10T00:09:09;6.10;;;3.10;;
29120;SDS011;16191;49.548;8.658;2022-07-10T00:11:35;6.18;;;3.35;;
29120;SDS011;16191;49.548;8.658;2022-07-10T00:14:02;5.40;;;3.70;;
29120;SDS011;16191;49.548;8.658;2022-07-10T00:16:28;4.00;;;3.22;;
29120;SDS011;16191;49.548;8.658;2022-07-10T00:18:55;7.10;;;3.85;;
29120;SDS011;16191;49.548;8.658;2022-07-10T00:21:21;4.75;;;2.83;;
29120;SDS011;16191;49.548;8.658;2022-07-10T00:23:47;3.60;;;3.15;;
29120;SDS011;16191;49.548;8.658;2022-07-10T00:26:14;4.32;;;3.53;;
29120;SDS011;16191;49.548;8.658;2022-07-10T00:28:41;5.65;;;4.10;;
29120;SDS011;16191;49.548;8.658;2022-07-10T00:31:07;7.03;;;4.15;;
29120;SDS011;16191;49.548;8.658;2022-07-10T00:33:37;9.00;;;4.50;;
29120;SDS011;16191;49.548;8.658;2022-07-10T00:36:04;10.68;;;5.85;;
29120;SDS011;16191;49.548;8.658;2022-07-10T00:38:32;8.13;;;5.30;;
29120;SDS011;16191;49.548;8.658;2022-07-10T00:40:59;5.45;;;3.67;;
29120;SDS011;16191;49.548;8.658;2022-07-10T00:43:25;6.10;;;3.55;;
29120;SDS011;16191;49.548;8.658;2022-07-10T00:46:12;4.53;;;3.10;;
29120;SDS011;16191;49.548;8.658;2022-07-10T00:49:00;6.30;;;3.28;;
29120;SDS011;16191;49.548;8.658;2022-07-10T00:51:46;6.40;;;3.63;;
29120;SDS011;16191;49.548;8.658;2022-07-10T00:54:36;5.57;;;3.13;;
29120;SDS011;16191;49.548;8.658;2022-07-10T00:57:24;4.80;;;3.70;;
29120;SDS011;16191;49.548;8.658;2022-07-10T01:00:10;4.22;;;3.53;;
29120;SDS011;16191;49.548;8.658;2022-07-10T01:02:40;5.65;;;3.88;;
29120;SDS011;16191;49.548;8.658;2022-07-10T01:07:35;5.15;;;3.53;;
29120;SDS011;16191;49.548;8.658;2022-07-10T01:10:02;6.50;;;3.47;;
29120;SDS011;16191;49.548;8.658;2022-07-10T01:12:29;7.28;;;3.50;;
29120;SDS011;16191;49.548;8.658;2022-07-10T01:14:58;5.07;;;3.58;;
29120;SDS011;16191;49.548;8.658;2022-07-10T01:17:25;6.70;;;3.78;;
29120;SDS011;16191;49.548;8.658;2022-07-10T01:19:52;6.13;;;4.15;;
29120;SDS011;16191;49.548;8.658;2022-07-10T01:22:18;6.07;;;3.97;;
29120;SDS011;16191;49.548;8.658;2022-07-10T01:24:45;6.63;;;4.53;;
29120;SDS011;16191;49.548;8.658;2022-07-10T01:27:11;6.60;;;4.40;;
29120;SDS011;16191;49.548;8.658;2022-07-10T01:29:38;10.15;;;5.00;;
29120;SDS011;16191;49.548;8.658;2022-07-10T01:32:05;9.65;;;5.35;;
29120;SDS011;16191;49.548;8.658;2022-07-10T01:34:32;9.02;;;5.18;;
29120;SDS011;16191;49.548;8.658;2022-07-10T01:36:59;8.60;;;5.38;;
29120;SDS011;16191;49.548;8.658;2022-07-10T01:39:26;8.70;;;5.20;;
29120;SDS011;16191;49.548;8.658;2022-07-10T01:41:52;8.13;;;5.45;;
29120;SDS011;16191;49.548;8.658;2022-07-10T01:44:19;8.55;;;4.80;;
29120;SDS011;16191;49.548;8.658;2022-07-10T01:46:46;5.78;;;4.68;;
29120;SDS011;16191;49.548;8.658;2022-07-10T01:49:13;8.18;;;4.43;;
29120;SDS011;16191;49.548;8.658;2022-07-10T01:51:40;7.00;;;4.93;;
29120;SDS011;16191;49.548;8.658;2022-07-10T01:54:06;7.70;;;4.30;;
29120;SDS011;16191;49.548;8.658;2022-07-10T01:56:33;8.80;;;4.55;;
29120;SDS011;16191;49.548;8.658;2022-07-10T01:58:59;8.00;;;4.07;;
29120;SDS011;16191;49.548;8.658;2022-07-10T02:01:27;9.55;;;4.47;;
29120;SDS011;16191;49.548;8.658;2022-07-10T02:03:54;10.98;;;3.60;;
29120;SDS011;16191;49.548;8.658;2022-07-10T02:06:39;7.70;;;4.00;;
29120;SDS011;16191;49.548;8.658;2022-07-10T02:09:06;8.32;;;3.72;;
29120;SDS011;16191;49.548;8.658;2022-07-10T02:11:32;5.60;;;3.72;;
29120;SDS011;16191;49.548;8.658;2022-07-10T02:13:59;8.52;;;3.70;;
29120;SDS011;16191;49.548;8.658;2022-07-10T02:16:25;6.93;;;3.88;;
29120;SDS011;16191;49.548;8.658;2022-07-10T02:18:52;5.05;;;3.72;;
29120;SDS011;16191;49.548;8.658;2022-07-10T02:21:18;5.80;;;3.60;;
29120;SDS011;16191;49.548;8.658;2022-07-10T02:23:45;6.72;;;3.75;;
29120;SDS011;16191;49.548;8.658;2022-07-10T02:26:11;7.15;;;3.72;;
29120;SDS011;16191;49.548;8.658;2022-07-10T02:28:38;7.63;;;3.70;;
29120;SDS011;16191;49.548;8.658;2022-07-10T02:31:05;4.55;;;3.50;;
29120;SDS011;16191;49.548;8.658;2022-07-10T02:33:32;8.38;;;3.53;;
29120;SDS011;16191;49.548;8.658;2022-07-10T02:35:58;5.28;;;3.30;;
29120;SDS011;16191;49.548;8.658;2022-07-10T02:38:25;7.63;;;3.20;;
29120;SDS011;16191;49.548;8.658;2022-07-10T02:40:51;4.47;;;2.95;;
29120;SDS011;16191;49.548;8.658;2022-07-10T02:43:18;8.35;;;3.35;;
29120;SDS011;16191;49.548;8.658;2022-07-10T02:45:44;7.80;;;3.35;;
29120;SDS011;16191;49.548;8.658;2022-07-10T02:48:14;12.68;;;3.05;;
29120;SDS011;16191;49.548;8.658;2022-07-10T02:50:41;5.40;;;2.72;;
29120;SDS011;16191;49.548;8.658;2022-07-10T02:53:08;10.70;;;3.17;;
29120;SDS011;16191;49.548;8.658;2022-07-10T02:55:34;6.10;;;2.65;;
29120;SDS011;16191;49.548;8.658;2022-07-10T02:58:01;3.85;;;2.63;;
29120;SDS011;16191;49.548;8.658;2022-07-10T03:00:27;4.68;;;2.58;;
29120;SDS011;16191;49.548;8.658;2022-07-10T03:02:55;7.55;;;2.58;;
29120;SDS011;16191;49.548;8.658;2022-07-10T03:05:22;8.45;;;2.83;;
29120;SDS011;16191;49.548;8.658;2022-07-10T03:07:48;8.60;;;2.80;;
29120;SDS011;16191;49.548;8.658;2022-07-10T03:10:15;5.88;;;2.30;;
29120;SDS011;16191;49.548;8.658;2022-07-10T03:12:42;8.32;;;2.40;;
29120;SDS011;16191;49.548;8.658;2022-07-10T03:15:09;5.25;;;2.35;;
29120;SDS011;16191;49.548;8.658;2022-07-10T03:17:35;4.55;;;2.38;;
29120;SDS011;16191;49.548;8.658;2022-07-10T03:20:02;5.57;;;2.65;;
29120;SDS011;16191;49.548;8.658;2022-07-10T03:22:29;5.45;;;2.53;;
29120;SDS011;16191;49.548;8.658;2022-07-10T03:24:57;7.50;;;2.95;;
29120;SDS011;16191;49.548;8.658;2022-07-10T03:27:23;6.10;;;2.30;;
29120;SDS011;16191;49.548;8.658;2022-07-10T03:29:50;5.47;;;2.50;;
29120;SDS011;16191;49.548;8.658;2022-07-10T03:32:16;6.30;;;1.95;;
29120;SDS011;16191;49.548;8.658;2022-07-10T03:34:43;8.43;;;2.22;;
29120;SDS011;16191;49.548;8.658;2022-07-10T03:37:09;5.65;;;2.25;;
29120;SDS011;16191;49.548;8.658;2022-07-10T03:39:36;5.03;;;1.90;;
29120;SDS011;16191;49.548;8.658;2022-07-10T03:42:02;6.35;;;2.00;;
29120;SDS011;16191;49.548;8.658;2022-07-10T03:44:29;8.10;;;2.28;;
29120;SDS011;16191;49.548;8.658;2022-07-10T03:46:56;5.53;;;2.15;;
29120;SDS011;16191;49.548;8.658;2022-07-10T03:49:22;5.28;;;2.33;;
29120;SDS011;16191;49.548;8.658;2022-07-10T03:51:49;5.55;;;2.45;;
29120;SDS011;16191;49.548;8.658;2022-07-10T03:54:15;7.07;;;1.80;;
29120;SDS011;16191;49.548;8.658;2022-07-10T03:56:42;6.60;;;2.30;;
29120;SDS011;16191;49.548;8.658;2022-07-10T03:59:27;4.63;;;1.98;;
29120;SDS011;16191;49.548;8.658;2022-07-10T04:01:54;6.15;;;2.33;;
29120;SDS011;16191;49.548;8.658;2022-07-10T04:04:21;5.45;;;2.10;;
29120;SDS011;16191;49.548;8.658;2022-07-10T04:06:47;5.97;;;1.98;;
29120;SDS011;16191;49.548;8.658;2022-07-10T04:09:14;4.10;;;1.80;;
29120;SDS011;16191;49.548;8.658;2022-07-10T04:11:40;5.85;;;2.17;;
29120;SDS011;16191;49.548;8.658;2022-07-10T04:14:07;5.93;;;1.90;;
29120;SDS011;16191;49.548;8.658;2022-07-10T04:16:33;5.38;;;1.80;;
29120;SDS011;16191;49.548;8.658;2022-07-10T04:19:00;6.40;;;2.28;;
29120;SDS011;16191;49.548;8.658;2022-07-10T04:21:27;9.85;;;2.10;;
29120;SDS011;16191;49.548;8.658;2022-07-10T04:23:53;6.47;;;2.10;;
29120;SDS011;16191;49.548;8.658;2022-07-10T04:26:20;5.18;;;1.88;;
29120;SDS011;16191;49.548;8.658;2022-07-10T04:28:46;5.78;;;1.65;;
29120;SDS011;16191;49.548;8.658;2022-07-10T04:31:13;9.18;;;2.05;;
29120;SDS011;16191;49.548;8.658;2022-07-10T04:33:39;7.53;;;1.98;;
29120;SDS011;16191;49.548;8.658;2022-07-10T04:36:06;6.40;;;1.45;;
29120;SDS011;16191;49.548;8.658;2022-07-10T04:38:33;7.00;;;1.92;;
29120;SDS011;16191;49.548;8.658;2022-07-10T04:41:00;5.50;;;1.65;;
29120;SDS011;16191;49.548;8.658;2022-07-10T04:43:26;5.70;;;1.80;;
29120;SDS011;16191;49.548;8.658;2022-07-10T04:45:53;6.95;;;2.00;;
29120;SDS011;16191;49.548;8.658;2022-07-10T04:48:19;4.00;;;1.90;;
29120;SDS011;16191;49.548;8.658;2022-07-10T04:50:46;7.55;;;1.70;;
29120;SDS011;16191;49.548;8.658;2022-07-10T04:53:12;5.63;;;1.67;;
29120;SDS011;16191;49.548;8.658;2022-07-10T04:55:39;6.47;;;1.90;;
29120;SDS011;16191;49.548;8.658;2022-07-10T04:58:06;5.00;;;2.00;;
29120;SDS011;16191;49.548;8.658;2022-07-10T05:00:32;6.40;;;1.77;;
29120;SDS011;16191;49.548;8.658;2022-07-10T05:02:59;6.32;;;1.75;;
29120;SDS011;16191;49.548;8.658;2022-07-10T05:05:25;7.25;;;1.95;;
29120;SDS011;16191;49.548;8.658;2022-07-10T05:07:52;8.32;;;1.60;;
29120;SDS011;16191;49.548;8.658;2022-07-10T05:10:20;8.52;;;1.65;;
29120;SDS011;16191;49.548;8.658;2022-07-10T05:12:46;8.13;;;1.95;;
29120;SDS011;16191;49.548;8.658;2022-07-10T05:15:13;6.43;;;1.70;;
29120;SDS011;16191;49.548;8.658;2022-07-10T05:17:39;9.70;;;1.92;;
29120;SDS011;16191;49.548;8.658;2022-07-10T05:20:06;4.20;;;1.52;;
29120;SDS011;16191;49.548;8.658;2022-07-10T05:22:33;10.35;;;2.20;;
29120;SDS011;16191;49.548;8.658;2022-07-10T05:25:00;11.27;;;1.80;;
29120;SDS011;16191;49.548;8.658;2022-07-10T05:27:26;10.68;;;1.77;;
29120;SDS011;16191;49.548;8.658;2022-07-10T05:29:53;4.70;;;1.40;;
29120;SDS011;16191;49.548;8.658;2022-07-10T05:32:19;6.03;;;1.33;;
29120;SDS011;16191;49.548;8.658;2022-07-10T05:34:46;4.38;;;1.42;;
29120;SDS011;16191;49.548;8.658;2022-07-10T05:37:13;4.93;;;1.48;;
29120;SDS011;16191;49.548;8.658;2022-07-10T05:39:39;5.90;;;1.40;;
29120;SDS011;16191;49.548;8.658;2022-07-10T05:42:06;4.72;;;1.63;;
29120;SDS011;16191;49.548;8.658;2022-07-10T05:44:32;5.53;;;1.40;;
29120;SDS011;16191;49.548;8.658;2022-07-10T05:46:59;7.93;;;1.38;;
29120;SDS011;16191;49.548;8.658;2022-07-10T05:49:26;9.50;;;1.90;;
29120;SDS011;16191;49.548;8.658;2022-07-10T05:51:53;7.35;;;1.67;;
29120;SDS011;16191;49.548;8.658;2022-07-10T05:54:19;5.82;;;1.30;;
29120;SDS011;16191;49.548;8.658;2022-07-10T05:56:46;5.82;;;1.42;;
29120;SDS011;16191;49.548;8.658;2022-07-10T05:59:12;7.93;;;1.42;;
29120;SDS011;16191;49.548;8.658;2022-07-10T06:01:39;10.38;;;1.98;;
29120;SDS011;16191;49.548;8.658;2022-07-10T06:04:05;6.32;;;1.27;;
29120;SDS011;16191;49.548;8.658;2022-07-10T06:06:32;5.10;;;1.40;;
29120;SDS011;16191;49.548;8.658;2022-07-10T06:08:58;6.35;;;1.30;;
29120;SDS011;16191;49.548;8.658;2022-07-10T06:11:25;5.28;;;1.20;;
29120;SDS011;16191;49.548;8.658;2022-07-10T06:13:52;6.78;;;1.65;;
29120;SDS011;16191;49.548;8.658;2022-07-10T06:16:18;5.22;;;1.05;;
29120;SDS011;16191;49.548;8.658;2022-07-10T06:18:44;6.60;;;1.48;;
29120;SDS011;16191;49.548;8.658;2022-07-10T06:21:11;7.10;;;1.33;;
29120;SDS011;16191;49.548;8.658;2022-07-10T06:23:38;6.05;;;1.50;;
29120;SDS011;16191;49.548;8.658;2022-07-10T06:26:04;9.88;;;1.30;;
29120;SDS011;16191;49.548;8.658;2022-07-10T06:28:33;6.43;;;1.30;;
29120;SDS011;16191;49.548;8.658;2022-07-10T06:31:01;6.45;;;1.30;;
29120;SDS011;16191;49.548;8.658;2022-07-10T06:33:28;5.03;;;1.48;;
29120;SDS011;16191;49.548;8.658;2022-07-10T06:35:55;7.47;;;1.92;;
29120;SDS011;16191;49.548;8.658;2022-07-10T06:38:22;5.70;;;1.30;;
29120;SDS011;16191;49.548;8.658;2022-07-10T06:40:48;4.68;;;1.58;;
29120;SDS011;16191;49.548;8.658;2022-07-10T06:43:16;5.95;;;1.48;;
29120;SDS011;16191;49.548;8.658;2022-07-10T06:45:43;4.93;;;1.83;;
29120;SDS011;16191;49.548;8.658;2022-07-10T06:48:10;4.97;;;1.08;;
29120;SDS011;16191;49.548;8.658;2022-07-10T06:50:37;5.15;;;1.35;;
29120;SDS011;16191;49.548;8.658;2022-07-10T06:53:04;5.35;;;1.20;;
29120;SDS011;16191;49.548;8.658;2022-07-10T06:55:32;7.38;;;1.30;;
29120;SDS011;16191;49.548;8.658;2022-07-10T06:57:59;4.05;;;1.15;;
29120;SDS011;16191;49.548;8.658;2022-07-10T07:00:26;4.60;;;1.10;;
29120;SDS011;16191;49.548;8.658;2022-07-10T07:02:52;6.13;;;1.05;;
29120;SDS011;16191;49.548;8.658;2022-07-10T07:05:20;3.20;;;0.90;;
29120;SDS011;16191;49.548;8.658;2022-07-10T07:07:47;3.55;;;0.90;;
29120;SDS011;16191;49.548;8.658;2022-07-10T07:10:13;4.78;;;1.00;;
29120;SDS011;16191;49.548;8.658;2022-07-10T07:12:40;4.45;;;0.85;;
29120;SDS011;16191;49.548;8.658;2022-07-10T07:15:06;6.05;;;1.35;;
29120;SDS011;16191;49.548;8.658;2022-07-10T07:17:38;3.25;;;0.88;;
29120;SDS011;16191;49.548;8.658;2022-07-10T07:20:24;4.20;;;1.02;;
29120;SDS011;16191;49.548;8.658;2022-07-10T07:23:12;3.10;;;0.90;;
29120;SDS011;16191;49.548;8.658;2022-07-10T07:25:39;4.93;;;0.90;;
29120;SDS011;16191;49.548;8.658;2022-07-10T07:28:08;5.10;;;0.80;;
29120;SDS011;16191;49.548;8.658;2022-07-10T07:30:38;4.10;;;0.85;;
29120;SDS011;16191;49.548;8.658;2022-07-10T07:33:05;5.65;;;0.88;;
29120;SDS011;16191;49.548;8.658;2022-07-10T07:35:31;4.03;;;1.10;;
29120;SDS011;16191;49.548;8.658;2022-07-10T07:37:58;3.65;;;0.93;;
29120;SDS011;16191;49.548;8.658;2022-07-10T07:40:25;3.20;;;1.10;;
29120;SDS011;16191;49.548;8.658;2022-07-10T07:42:52;5.60;;;1.05;;
29120;SDS011;16191;49.548;8.658;2022-07-10T07:45:20;8.75;;;1.00;;
29120;SDS011;16191;49.548;8.658;2022-07-10T07:50:26;4.43;;;0.73;;
29120;SDS011;16191;49.548;8.658;2022-07-10T07:52:55;2.75;;;0.93;;
29120;SDS011;16191;49.548;8.658;2022-07-10T07:55:22;4.97;;;0.70;;
29120;SDS011;16191;49.548;8.658;2022-07-10T07:57:51;3.97;;;0.93;;
29120;SDS011;16191;49.548;8.658;2022-07-10T08:00:22;3.78;;;0.90;;
29120;SDS011;16191;49.548;8.658;2022-07-10T08:02:50;3.97;;;0.93;;
29120;SDS011;16191;49.548;8.658;2022-07-10T08:05:18;3.40;;;0.70;;
29120;SDS011;16191;49.548;8.658;2022-07-10T08:07:46;6.95;;;0.82;;
29120;SDS011;16191;49.548;8.658;2022-07-10T08:10:16;5.70;;;0.70;;
29120;SDS011;16191;49.548;8.658;2022-07-10T08:12:44;3.22;;;0.90;;
29120;SDS011;16191;49.548;8.658;2022-07-10T08:15:13;2.05;;;0.57;;
29120;SDS011;16191;49.548;8.658;2022-07-10T08:17:41;2.38;;;0.90;;
29120;SDS011;16191;49.548;8.658;2022-07-10T08:20:10;3.55;;;0.90;;
29120;SDS011;16191;49.548;8.658;2022-07-10T08:22:38;4.38;;;0.82;;
29120;SDS011;16191;49.548;8.658;2022-07-10T08:25:09;5.85;;;1.10;;
29120;SDS011;16191;49.548;8.658;2022-07-10T08:27:37;2.58;;;0.80;;
29120;SDS011;16191;49.548;8.658;2022-07-10T08:30:04;2.45;;;0.80;;
29120;SDS011;16191;49.548;8.658;2022-07-10T08:32:32;6.03;;;1.10;;
29120;SDS011;16191;49.548;8.658;2022-07-10T08:34:58;2.75;;;0.90;;
29120;SDS011;16191;49.548;8.658;2022-07-10T08:37:25;3.03;;;1.08;;
29120;SDS011;16191;49.548;8.658;2022-07-10T08:39:52;5.32;;;1.02;;
29120;SDS011;16191;49.548;8.658;2022-07-10T08:42:18;5.63;;;1.20;;
29120;SDS011;16191;49.548;8.658;2022-07-10T08:44:46;2.97;;;0.80;;
29120;SDS011;16191;49.548;8.658;2022-07-10T08:47:14;8.38;;;1.02;;
29120;SDS011;16191;49.548;8.658;2022-07-10T08:49:46;4.57;;;1.10;;
29120;SDS011;16191;49.548;8.658;2022-07-10T08:52:23;4.78;;;1.20;;
29120;SDS011;16191;49.548;8.658;2022-07-10T08:54:52;3.25;;;1.00;;
29120;SDS011;16191;49.548;8.658;2022-07-10T08:57:19;4.43;;;1.00;;
29120;SDS011;16191;49.548;8.658;2022-07-10T08:59:46;4.03;;;0.73;;
29120;SDS011;16191;49.548;8.658;2022-07-10T09:02:12;3.00;;;0.88;;
29120;SDS011;16191;49.548;8.658;2022-07-10T09:04:39;4.10;;;0.88;;
29120;SDS011;16191;49.548;8.658;2022-07-10T09:07:06;3.08;;;0.65;;
29120;SDS011;16191;49.548;8.658;2022-07-10T09:09:34;2.22;;;0.80;;
29120;SDS011;16191;49.548;8.658;2022-07-10T09:12:17;5.45;;;0.90;;
29120;SDS011;16191;49.548;8.658;2022-07-10T09:14:46;3.15;;;0.70;;
29120;SDS011;16191;49.548;8.658;2022-07-10T09:17:13;5.07;;;1.30;;
29120;SDS011;16191;49.548;8.658;2022-07-10T09:19:39;4.72;;;0.98;;
29120;SDS011;16191;49.548;8.658;2022-07-10T09:22:07;3.83;;;1.00;;
29120;SDS011;16191;49.548;8.658;2022-07-10T09:24:36;4.25;;;0.75;;
29120;SDS011;16191;49.548;8.658;2022-07-10T09:27:04;2.72;;;0.77;;
29120;SDS011;16191;49.548;8.658;2022-07-10T09:29:32;4.53;;;0.98;;
29120;SDS011;16191;49.548;8.658;2022-07-10T09:32:09;2.15;;;0.70;;
29120;SDS011;16191;49.548;8.658;2022-07-10T09:34:47;2.03;;;0.63;;
29120;SDS011;16191;49.548;8.658;2022-07-10T09:37:28;3.20;;;0.85;;
29120;SDS011;16191;49.548;8.658;2022-07-10T09:42:33;3.35;;;1.00;;
29120;SDS011;16191;49.548;8.658;2022-07-10T09:47:43;2.78;;;0.80;;
29120;SDS011;16191;49.548;8.658;2022-07-10T09:52:55;3.97;;;1.00;;
29120;SDS011;16191;49.548;8.658;2022-07-10T09:55:23;4.88;;;0.70;;
29120;SDS011;16191;49.548;8.658;2022-07-10T09:57:53;5.07;;;0.80;;
29120;SDS011;16191;49.548;8.658;2022-07-10T10:00:31;2.47;;;0.82;;
29120;SDS011;16191;49.548;8.658;2022-07-10T10:03:03;2.33;;;1.02;;
29120;SDS011;16191;49.548;8.658;2022-07-10T10:05:38;3.95;;;1.00;;
29120;SDS011;16191;49.548;8.658;2022-07-10T10:08:16;3.45;;;0.90;;
29120;SDS011;16191;49.548;8.658;2022-07-10T10:10:44;3.90;;;1.05;;
29120;SDS011;16191;49.548;8.658;2022-07-10T10:13:20;4.10;;;0.98;;
29120;SDS011;16191;49.548;8.658;2022-07-10T10:15:50;4.55;;;0.93;;
29120;SDS011;16191;49.548;8.658;2022-07-10T10:18:21;4.18;;;0.98;;
29120;SDS011;16191;49.548;8.658;2022-07-10T10:20:52;6.30;;;1.13;;
29120;SDS011;16191;49.548;8.658;2022-07-10T10:23:21;8.02;;;0.70;;
29120;SDS011;16191;49.548;8.658;2022-07-10T10:25:50;3.72;;;0.85;;
29120;SDS011;16191;49.548;8.658;2022-07-10T10:28:18;4.18;;;1.10;;
29120;SDS011;16191;49.548;8.658;2022-07-10T10:30:51;4.43;;;0.90;;
29120;SDS011;16191;49.548;8.658;2022-07-10T10:36:04;6.97;;;1.15;;
29120;SDS011;16191;49.548;8.658;2022-07-10T10:49:24;4.03;;;1.20;;
29120;SDS011;16191;49.548;8.658;2022-07-10T10:52:04;2.88;;;0.70;;
29120;SDS011;16191;49.548;8.658;2022-07-10T10:57:40;3.40;;;0.95;;
29120;SDS011;16191;49.548;8.658;2022-07-10T11:00:14;3.13;;;0.70;;
29120;SDS011;16191;49.548;8.658;2022-07-10T11:03:11;4.07;;;0.77;;
29120;SDS011;16191;49.548;8.658;2022-07-10T11:05:42;2.08;;;0.95;;
29120;SDS011;16191;49.548;8.658;2022-07-10T11:08:10;3.42;;;0.60;;
29120;SDS011;16191;49.548;8.658;2022-07-10T11:10:41;4.07;;;0.95;;
29120;SDS011;16191;49.548;8.658;2022-07-10T11:13:15;3.72;;;1.15;;
29120;SDS011;16191;49.548;8.658;2022-07-10T11:15:43;1.90;;;0.68;;
29120;SDS011;16191;49.548;8.658;2022-07-10T11:18:12;2.17;;;1.17;;
29120;SDS011;16191;49.548;8.658;2022-07-10T11:20:44;1.25;;;0.60;;
29120;SDS011;16191;49.548;8.658;2022-07-10T11:26:10;2.33;;;0.90;;
29120;SDS011;16191;49.548;8.658;2022-07-10T11:28:55;3.08;;;0.90;;
29120;SDS011;16191;49.548;8.658;2022-07-10T11:31:24;2.78;;;0.88;;
29120;SDS011;16191;49.548;8.658;2022-07-10T11:33:53;6.88;;;1.10;;
29120;SDS011;16191;49.548;8.658;2022-07-10T11:36:21;3.58;;;1.00;;
29120;SDS011;16191;49.548;8.658;2022-07-10T11:38:58;3.10;;;1.00;;
29120;SDS011;16191;49.548;8.658;2022-07-10T11:41:26;2.60;;;0.82;;
29120;SDS011;16191;49.548;8.658;2022-07-10T11:46:22;6.22;;;0.75;;
29120;SDS011;16191;49.548;8.658;2022-07-10T11:48:50;5.55;;;1.23;;
29120;SDS011;16191;49.548;8.658;2022-07-10T11:51:27;5.07;;;1.25;;
29120;SDS011;16191;49.548;8.658;2022-07-10T11:56:32;3.10;;;0.98;;
29120;SDS011;16191;49.548;8.658;2022-07-10T11:59:01;5.10;;;1.17;;
29120;SDS011;16191;49.548;8.658;2022-07-10T12:01:41;4.68;;;1.23;;
29120;SDS011;16191;49.548;8.658;2022-07-10T12:04:09;3.28;;;0.73;;
29120;SDS011;16191;49.548;8.658;2022-07-10T12:06:37;4.10;;;1.17;;
29120;SDS011;16191;49.548;8.658;2022-07-10T12:09:15;4.53;;;1.20;;
29120;SDS011;16191;49.548;8.658;2022-07-10T12:11:44;5.97;;;0.90;;
29120;SDS011;16191;49.548;8.658;2022-07-10T12:14:23;4.93;;;1.17;;
29120;SDS011;16191;49.548;8.658;2022-07-10T12:16:50;2.58;;;0.80;;
29120;SDS011;16191;49.548;8.658;2022-07-10T12:19:20;4.63;;;1.20;;
29120;SDS011;16191;49.548;8.658;2022-07-10T12:24:22;5.07;;;1.10;;
29120;SDS011;16191;49.548;8.658;2022-07-10T12:26:50;3.95;;;1.17;;
29120;SDS011;16191;49.548;8.658;2022-07-10T12:31:49;3.08;;;0.80;;
29120;SDS011;16191;49.548;8.658;2022-07-10T12:34:17;4.63;;;1.15;;
29120;SDS011;16191;49.548;8.658;2022-07-10T12:36:48;4.90;;;1.05;;
29120;SDS011;16191;49.548;8.658;2022-07-10T12:39:17;3.50;;;1.00;;
29120;SDS011;16191;49.548;8.658;2022-07-10T12:41:57;5.43;;;1.30;;
29120;SDS011;16191;49.548;8.658;2022-07-10T12:47:13;4.82;;;1.15;;
29120;SDS011;16191;49.548;8.658;2022-07-10T12:49:48;10.63;;;1.48;;
29120;SDS011;16191;49.548;8.658;2022-07-10T12:52:30;3.67;;;1.00;;
29120;SDS011;16191;49.548;8.658;2022-07-10T12:55:08;5.50;;;1.33;;
29120;SDS011;16191;49.548;8.658;2022-07-10T12:57:56;3.65;;;1.13;;
29120;SDS011;16191;49.548;8.658;2022-07-10T13:00:25;2.70;;;1.00;;
29120;SDS011;16191;49.548;8.658;2022-07-10T13:03:07;5.80;;;1.60;;
29120;SDS011;16191;49.548;8.658;2022-07-10T13:05:36;2.35;;;1.05;;
29120;SDS011;16191;49.548;8.658;2022-07-10T13:10:40;3.28;;;1.05;;
29120;SDS011;16191;49.548;8.658;2022-07-10T13:13:07;4.00;;;0.95;;
29120;SDS011;16191;49.548;8.658;2022-07-10T13:15:34;3.35;;;1.20;;
29120;SDS011;16191;49.548;8.658;2022-07-10T13:18:07;5.70;;;1.20;;
29120;SDS011;16191;49.548;8.658;2022-07-10T13:20:34;4.53;;;1.10;;
29120;SDS011;16191;49.548;8.658;2022-07-10T13:23:01;5.35;;;1.15;;
29120;SDS011;16191;49.548;8.658;2022-07-10T13:25:27;4.95;;;1.30;;
29120;SDS011;16191;49.548;8.658;2022-07-10T13:27:54;5.25;;;1.13;;
29120;SDS011;16191;49.548;8.658;2022-07-10T13:30:21;4.55;;;1.20;;
29120;SDS011;16191;49.548;8.658;2022-07-10T13:32:47;4.63;;;1.48;;
29120;SDS011;16191;49.548;8.658;2022-07-10T13:35:14;4.95;;;1.20;;
29120;SDS011;16191;49.548;8.658;2022-07-10T13:37:40;5.75;;;1.45;;
29120;SDS011;16191;49.548;8.658;2022-07-10T13:40:08;6.60;;;1.50;;
29120;SDS011;16191;49.548;8.658;2022-07-10T13:42:35;6.38;;;1.23;;
29120;SDS011;16191;49.548;8.658;2022-07-10T13:45:01;3.55;;;1.00;;
29120;SDS011;16191;49.548;8.658;2022-07-10T13:47:28;5.90;;;1.05;;
29120;SDS011;16191;49.548;8.658;2022-07-10T13:49:55;9.75;;;1.35;;
29120;SDS011;16191;49.548;8.658;2022-07-10T13:52:21;6.50;;;1.02;;
29120;SDS011;16191;49.548;8.658;2022-07-10T13:54:48;5.95;;;1.15;;
29120;SDS011;16191;49.548;8.658;2022-07-10T13:57:14;3.33;;;1.10;;
29120;SDS011;16191;49.548;8.658;2022-07-10T13:59:41;5.28;;;1.02;;
29120;SDS011;16191;49.548;8.658;2022-07-10T14:02:08;5.22;;;1.48;;
29120;SDS011;16191;49.548;8.658;2022-07-10T14:04:41;5.60;;;1.30;;
29120;SDS011;16191;49.548;8.658;2022-07-10T14:07:08;5.40;;;1.50;;
29120;SDS011;16191;49.548;8.658;2022-07-10T14:09:35;4.22;;;1.15;;
29120;SDS011;16191;49.548;8.658;2022-07-10T14:12:01;7.80;;;1.30;;
29120;SDS011;16191;49.548;8.658;2022-07-10T14:14:28;4.30;;;1.15;;
29120;SDS011;16191;49.548;8.658;2022-07-10T14:16:54;7.53;;;1.20;;
29120;SDS011;16191;49.548;8.658;2022-07-10T14:19:21;6.07;;;1.02;;
29120;SDS011;16191;49.548;8.658;2022-07-10T14:21:47;4.32;;;1.30;;
29120;SDS011;16191;49.548;8.658;2022-07-10T14:24:14;5.35;;;1.30;;
29120;SDS011;16191;49.548;8.658;2022-07-10T14:26:40;3.63;;;1.25;;
29120;SDS011;16191;49.548;8.658;2022-07-10T14:29:07;6.90;;;1.30;;
29120;SDS011;16191;49.548;8.658;2022-07-10T14:31:34;3.33;;;1.00;;
29120;SDS011;16191;49.548;8.658;2022-07-10T14:34:01;3.45;;;0.90;;
29120;SDS011;16191;49.548;8.658;2022-07-10T14:36:27;3.90;;;1.08;;
29120;SDS011;16191;49.548;8.658;2022-07-10T14:38:54;3.47;;;0.93;;
29120;SDS011;16191;49.548;8.658;2022-07-10T14:41:22;5.47;;;1.48;;
29120;SDS011;16191;49.548;8.658;2022-07-10T14:43:49;4.70;;;0.95;;
29120;SDS011;16191;49.548;8.658;2022-07-10T14:46:16;3.00;;;0.98;;
29120;SDS011;16191;49.548;8.658;2022-07-10T14:48:43;4.93;;;1.13;;
29120;SDS011;16191;49.548;8.658;2022-07-10T14:51:09;8.00;;;1.02;;
29120;SDS011;16191;49.548;8.658;2022-07-10T14:53:36;4.43;;;1.30;;
29120;SDS011;16191;49.548;8.658;2022-07-10T14:56:04;4.18;;;1.38;;
29120;SDS011;16191;49.548;8.658;2022-07-10T14:58:31;2.42;;;0.90;;
29120;SDS011;16191;49.548;8.658;2022-07-10T15:01:18;6.47;;;1.17;;
29120;SDS011;16191;49.548;8.658;2022-07-10T15:03:46;4.47;;;1.30;;
29120;SDS011;16191;49.548;8.658;2022-07-10T15:06:13;2.75;;;0.80;;
29120;SDS011;16191;49.548;8.658;2022-07-10T15:08:39;4.63;;;1.10;;
29120;SDS011;16191;49.548;8.658;2022-07-10T15:11:06;4.47;;;1.00;;
29120;SDS011;16191;49.548;8.658;2022-07-10T15:13:33;5.22;;;1.00;;
29120;SDS011;16191;49.548;8.658;2022-07-10T15:16:00;6.60;;;1.00;;
29120;SDS011;16191;49.548;8.658;2022-07-10T15:18:27;4.55;;;1.20;;
29120;SDS011;16191;49.548;8.658;2022-07-10T15:20:54;2.65;;;0.90;;
29120;SDS011;16191;49.548;8.658;2022-07-10T15:23:20;2.70;;;0.82;;
29120;SDS011;16191;49.548;8.658;2022-07-10T15:25:47;2.80;;;1.05;;
29120;SDS011;16191;49.548;8.658;2022-07-10T15:28:13;2.25;;;1.05;;
29120;SDS011;16191;49.548;8.658;2022-07-10T15:30:40;1.75;;;0.82;;
29120;SDS011;16191;49.548;8.658;2022-07-10T15:33:09;0.98;;;0.60;;
29120;SDS011;16191;49.548;8.658;2022-07-10T15:35:35;1.63;;;0.60;;
29120;SDS011;16191;49.548;8.658;2022-07-10T15:38:02;4.00;;;0.68;;
29120;SDS011;16191;49.548;8.658;2022-07-10T15:40:29;2.15;;;0.60;;
29120;SDS011;16191;49.548;8.658;2022-07-10T15:42:56;0.95;;;0.50;;
29120;SDS011;16191;49.548;8.658;2022-07-10T15:45:24;2.15;;;0.90;;